createdAt,value
2022-09-25T00:03:10.301Z,180
2022-09-25T00:05:11.695Z,180
2022-09-25T00:07:13.447Z,180
2022-09-25T00:09:14.514Z,180
2022-09-25T00:15:18.976Z,180
2022-09-25T00:17:19.978Z,180
2022-09-25T00:19:21.726Z,180
2022-09-25T00:21:23.494Z,180
2022-09-25T00:25:26.767Z,180
2022-09-25T00:27:28.481Z,180
2022-09-25T00:29:30.086Z,180
2022-09-25T00:31:31.288Z,180
2022-09-25T00:35:33.837Z,180
2022-09-25T00:39:36.812Z,180
2022-09-25T00:41:38.168Z,180
2022-09-25T00:43:39.627Z,180
2022-09-25T00:45:40.843Z,180
2022-09-25T00:47:41.829Z,180
2022-09-25T00:49:43.206Z,180
2022-09-25T00:51:44.659Z,180
2022-09-25T00:53:46.171Z,180
2022-09-25T00:55:47.357Z,180
2022-09-25T00:57:48.608Z,180
2022-09-25T00:59:49.757Z,180
2022-09-25T01:03:53.331Z,180
2022-09-25T01:05:54.567Z,180
2022-09-25T01:07:56.241Z,180
2022-09-25T01:09:57.787Z,180
2022-09-25T01:14:00.973Z,180
2022-09-25T01:18:03.744Z,180
2022-09-25T01:20:05.518Z,180
2022-09-25T01:22:07.055Z,180
2022-09-25T01:24:08.695Z,180
2022-09-25T01:26:13.656Z,180
2022-09-25T01:28:11.329Z,180
2022-09-25T01:30:12.387Z,180
2022-09-25T01:32:13.538Z,180
2022-09-25T01:34:15.024Z,180
2022-09-25T01:36:16.505Z,180
2022-09-25T01:38:18.394Z,180
2022-09-25T01:40:20.248Z,180
2022-09-25T01:42:21.048Z,180
2022-09-25T01:44:22.287Z,180
2022-09-25T01:46:23.486Z,180
2022-09-25T01:48:24.871Z,180
2022-09-25T01:50:26.527Z,180
2022-09-25T01:52:28.054Z,180
2022-09-25T01:54:29.165Z,180
2022-09-25T01:56:30.633Z,180
2022-09-25T02:00:34.122Z,180
2022-09-25T02:02:35.415Z,180
2022-09-25T02:04:36.779Z,180
2022-09-25T02:06:38.685Z,180
2022-09-25T02:10:41.013Z,180
2022-09-25T02:12:42.469Z,180
2022-09-25T02:14:43.490Z,180
2022-09-25T02:16:45.203Z,180
2022-09-25T02:22:49.518Z,180
2022-09-25T02:24:54.151Z,180
2022-09-25T02:26:52.766Z,180
2022-09-25T02:28:54.634Z,180
2022-09-25T02:30:56.110Z,180
2022-09-25T02:32:57.440Z,180
2022-09-25T02:34:59.257Z,180
2022-09-25T02:37:00.731Z,180
2022-09-25T02:39:01.961Z,180
2022-09-25T02:43:04.194Z,180
2022-09-25T02:45:05.408Z,180
2022-09-25T02:49:08.743Z,180
2022-09-25T02:53:11.830Z,180
2022-09-25T02:55:13.735Z,180
2022-09-25T02:59:16.197Z,180
2022-09-25T03:03:18.515Z,180
2022-09-25T03:05:20.337Z,180
2022-09-25T03:09:23.852Z,180
2022-09-25T03:11:24.970Z,180
2022-09-25T03:13:26.356Z,180
2022-09-25T03:15:28.112Z,180
2022-09-25T03:17:29.538Z,180
2022-09-25T03:21:33.013Z,180
2022-09-25T03:23:34.836Z,180
2022-09-25T03:27:37.344Z,180
2022-09-25T03:31:40.201Z,180
2022-09-25T03:33:41.618Z,180
2022-09-25T03:35:43.196Z,180
2022-09-25T03:37:44.306Z,180
2022-09-25T03:39:45.971Z,180
2022-09-25T03:41:47.611Z,180
2022-09-25T03:43:48.672Z,180
2022-09-25T03:45:50.570Z,180
2022-09-25T03:47:51.735Z,180
2022-09-25T03:51:54.246Z,180
2022-09-25T03:53:55.260Z,180
2022-09-25T03:55:56.752Z,180
2022-09-25T03:57:57.940Z,180
2022-09-25T03:59:59.646Z,180
2022-09-25T04:04:02.425Z,180
2022-09-25T04:06:03.370Z,180
2022-09-25T04:08:04.572Z,180
2022-09-25T04:10:05.662Z,180
2022-09-25T04:14:08.428Z,180
2022-09-25T04:16:09.795Z,180
2022-09-25T04:20:12.795Z,180
2022-09-25T04:24:15.650Z,180
2022-09-25T04:26:16.882Z,180
2022-09-25T04:30:19.261Z,180
2022-09-25T04:34:22.244Z,180
2022-09-25T04:36:24.000Z,180
2022-09-25T04:40:26.908Z,180
2022-09-25T04:42:28.647Z,180
2022-09-25T04:44:29.962Z,180
2022-09-25T04:46:31.203Z,180
2022-09-25T04:50:34.004Z,180
2022-09-25T04:52:35.144Z,180
2022-09-25T04:54:36.448Z,180
2022-09-25T04:56:37.865Z,180
2022-09-25T04:58:39.652Z,180
2022-09-25T05:02:41.639Z,180
2022-09-25T05:04:42.584Z,180
2022-09-25T05:06:43.841Z,180
2022-09-25T05:08:45.209Z,180
2022-09-25T05:12:48.242Z,180
2022-09-25T05:14:49.582Z,180
2022-09-25T05:16:50.855Z,180
2022-09-25T05:18:51.852Z,180
2022-09-25T05:20:53.161Z,180
2022-09-25T05:22:54.186Z,180
2022-09-25T05:24:58.892Z,180
2022-09-25T05:26:57.088Z,180
2022-09-25T05:28:58.373Z,180
2022-09-25T05:30:59.505Z,180
2022-09-25T05:33:00.470Z,180
2022-09-25T05:35:01.963Z,180
2022-09-25T05:37:03.029Z,180
2022-09-25T05:39:04.065Z,180
2022-09-25T05:41:05.408Z,180
2022-09-25T05:43:06.905Z,180
2022-09-25T05:45:52.690Z,180
2022-09-25T05:49:54.792Z,180
2022-09-25T05:51:56.256Z,180
2022-09-25T05:55:59.111Z,180
2022-09-25T06:00:01.945Z,180
2022-09-25T06:02:03.695Z,180
2022-09-25T06:06:06.039Z,180
2022-09-25T06:08:07.711Z,180
2022-09-25T06:10:09.006Z,180
2022-09-25T06:12:10.218Z,180
2022-09-25T06:16:13.354Z,180
2022-09-25T06:18:15.198Z,180
2022-09-25T06:20:16.708Z,180
2022-09-25T06:22:18.362Z,180
2022-09-25T06:26:21.639Z,180
2022-09-25T06:28:22.726Z,180
2022-09-25T06:32:25.710Z,180
2022-09-25T06:34:26.948Z,180
2022-09-25T06:38:29.952Z,180
2022-09-25T06:42:32.448Z,180
2022-09-25T06:44:33.931Z,181
2022-09-25T06:48:36.567Z,181
2022-09-25T06:50:37.513Z,181
2022-09-25T06:52:39.360Z,181
2022-09-25T06:54:43.902Z,181
2022-09-25T06:56:42.667Z,181
2022-09-25T06:58:44.401Z,181
2022-09-25T07:00:45.534Z,181
2022-09-25T07:04:48.432Z,181
2022-09-25T07:06:49.395Z,181
2022-09-25T07:08:51.280Z,181
2022-09-25T07:10:52.309Z,181
2022-09-25T07:12:53.848Z,181
2022-09-25T07:14:54.835Z,181
2022-09-25T07:16:55.953Z,181
2022-09-25T07:18:57.475Z,181
2022-09-25T07:20:58.796Z,181
2022-09-25T07:22:59.952Z,181
2022-09-25T07:27:02.565Z,181
2022-09-25T07:31:05.888Z,181
2022-09-25T07:33:07.731Z,181
2022-09-25T07:37:09.857Z,181
2022-09-25T07:39:14.850Z,181
2022-09-25T07:41:13.289Z,181
2022-09-25T07:43:14.832Z,181
2022-09-25T07:45:16.341Z,181
2022-09-25T07:47:18.031Z,181
2022-09-25T07:49:19.412Z,181
2022-09-25T07:51:20.325Z,181
2022-09-25T07:53:22.015Z,181
2022-09-25T07:55:23.829Z,181
2022-09-25T07:57:25.201Z,181
2022-09-25T07:59:26.328Z,181
2022-09-25T08:03:29.921Z,181
2022-09-25T08:05:31.775Z,181
2022-09-25T08:07:33.562Z,181
2022-09-25T08:09:34.483Z,181
2022-09-25T08:11:36.045Z,181
2022-09-25T08:13:37.237Z,181
2022-09-25T08:15:39.112Z,181
2022-09-25T08:17:40.872Z,181
2022-09-25T08:19:42.367Z,181
2022-09-25T08:23:47.877Z,181
2022-09-25T08:25:46.132Z,181
2022-09-25T08:27:47.106Z,181
2022-09-25T08:29:48.505Z,181
2022-09-25T08:35:52.003Z,181
2022-09-25T08:39:54.606Z,181
2022-09-25T08:41:56.026Z,181
2022-09-25T08:43:57.347Z,181
2022-09-25T08:45:58.757Z,181
2022-09-25T08:52:02.686Z,181
2022-09-25T08:54:03.701Z,181
2022-09-25T08:56:05.270Z,181
2022-09-25T08:58:07.082Z,181
2022-09-25T09:02:09.581Z,181
2022-09-25T09:06:12.975Z,181
2022-09-25T09:08:14.353Z,181
2022-09-25T09:12:17.325Z,181
2022-09-25T09:16:19.799Z,181
2022-09-25T09:18:21.016Z,181
2022-09-25T09:22:24.275Z,181
2022-09-25T09:24:25.893Z,181
2022-09-25T09:26:27.397Z,181
2022-09-25T09:28:29.131Z,181
2022-09-25T09:32:32.287Z,181
2022-09-25T09:34:53.397Z,181
2022-09-25T09:36:34.321Z,181
2022-09-25T09:38:35.834Z,181
2022-09-25T09:40:37.562Z,181
2022-09-25T09:44:40.916Z,181
2022-09-25T09:46:42.316Z,181
2022-09-25T09:48:43.854Z,181
2022-09-25T09:50:48.557Z,181
2022-09-25T09:54:47.978Z,181
2022-09-25T09:56:48.942Z,181
2022-09-25T09:58:50.481Z,181
2022-09-25T10:00:52.015Z,181
2022-09-25T10:02:54.004Z,181
2022-09-25T10:04:54.612Z,181
2022-09-25T10:06:55.824Z,181
2022-09-25T10:08:56.825Z,181
2022-09-25T10:10:57.932Z,181
2022-09-25T10:13:02.924Z,181
2022-09-25T10:15:00.746Z,181
2022-09-25T10:17:01.657Z,181
2022-09-25T10:19:03.057Z,181
2022-09-25T10:21:04.396Z,181
2022-09-25T10:23:05.650Z,181
2022-09-25T10:27:08.441Z,181
2022-09-25T10:29:09.375Z,181
2022-09-25T10:31:10.425Z,181
2022-09-25T10:33:12.061Z,181
2022-09-25T10:35:13.136Z,181
2022-09-25T10:37:14.663Z,181
2022-09-25T10:39:39.411Z,181
2022-09-25T10:43:18.335Z,181
2022-09-25T10:45:19.712Z,181
2022-09-25T10:47:20.612Z,181
2022-09-25T10:49:21.679Z,181
2022-09-25T10:51:22.585Z,181
2022-09-25T10:53:23.813Z,181
2022-09-25T10:57:27.271Z,181
2022-09-25T10:59:28.386Z,181
2022-09-25T11:03:31.193Z,181
2022-09-25T11:05:32.795Z,181
2022-09-25T11:07:33.773Z,181
2022-09-25T11:09:34.999Z,181
2022-09-25T11:15:39.363Z,181
2022-09-25T11:17:41.077Z,181
2022-09-25T11:21:43.264Z,181
2022-09-25T11:23:44.284Z,181
2022-09-25T11:25:45.325Z,181
2022-09-25T11:27:46.775Z,181
2022-09-25T11:31:49.507Z,181
2022-09-25T11:33:50.912Z,181
2022-09-25T11:35:51.852Z,181
2022-09-25T11:37:53.563Z,181
2022-09-25T11:41:56.300Z,181
2022-09-25T11:43:57.999Z,181
2022-09-25T11:47:59.332Z,181
2022-09-25T11:50:01.058Z,181
2022-09-25T11:52:02.265Z,181
2022-09-25T11:56:05.246Z,181
2022-09-25T11:58:06.481Z,181
2022-09-25T12:00:07.792Z,181
2022-09-25T12:02:08.854Z,181
2022-09-25T12:04:10.356Z,181
2022-09-25T12:08:13.411Z,181
2022-09-25T12:10:15.123Z,181
2022-09-25T12:12:16.558Z,181
2022-09-25T12:14:17.870Z,181
2022-09-25T12:18:20.900Z,181
2022-09-25T12:20:22.147Z,230
2022-09-25T12:22:23.398Z,230
2022-09-25T12:24:27.059Z,230
2022-09-25T12:28:27.374Z,230
2022-09-25T12:29:11.149Z,230
2022-09-25T12:31:12.699Z,230
2022-09-25T12:33:13.748Z,230
2022-09-25T12:35:14.746Z,250
2022-09-25T12:37:16.585Z,250
2022-09-25T12:39:18.332Z,250
2022-09-25T12:41:20.108Z,250
2022-09-25T12:43:21.373Z,250
2022-09-25T12:45:23.144Z,250
2022-09-25T12:47:24.189Z,250
2022-09-25T12:49:25.860Z,250
2022-09-25T12:51:27.567Z,250
2022-09-25T12:53:29.299Z,250
2022-09-25T12:55:30.315Z,250
2022-09-25T12:57:31.945Z,250
2022-09-25T12:59:33.693Z,250
2022-09-25T13:01:35.003Z,250
2022-09-25T13:03:36.380Z,250
2022-09-25T13:05:37.286Z,250
2022-09-25T13:07:38.855Z,250
2022-09-25T13:11:41.413Z,249
2022-09-25T13:13:43.057Z,249
2022-09-25T13:15:43.920Z,249
2022-09-25T13:17:45.054Z,249
2022-09-25T13:19:46.679Z,249
2022-09-25T13:21:48.416Z,249
2022-09-25T13:23:49.667Z,249
2022-09-25T13:25:50.613Z,249
2022-09-25T13:27:51.862Z,250
2022-09-25T13:29:53.506Z,250
2022-09-25T13:31:54.877Z,250
2022-09-25T13:33:55.840Z,250
2022-09-25T13:35:56.918Z,250
2022-09-25T13:37:58.533Z,250
2022-09-25T13:39:59.836Z,250
2022-09-25T13:44:02.151Z,250
2022-09-25T13:46:03.792Z,250
2022-09-25T13:48:07.679Z,250
2022-09-25T13:54:10.023Z,250
2022-09-25T13:56:11.452Z,250
2022-09-25T13:58:12.800Z,250
2022-09-25T14:00:14.419Z,250
2022-09-25T14:04:16.308Z,250
2022-09-25T14:06:18.077Z,250
2022-09-25T14:08:19.559Z,250
2022-09-25T14:10:21.238Z,250
2022-09-25T14:12:22.171Z,250
2022-09-25T14:14:23.622Z,250
2022-09-25T14:16:24.495Z,250
2022-09-25T14:20:27.243Z,250
2022-09-25T14:22:28.249Z,250
2022-09-25T14:26:30.963Z,360
2022-09-25T14:30:33.891Z,284
2022-09-25T14:32:54.387Z,282
2022-09-25T14:34:36.969Z,228
2022-09-25T14:36:38.247Z,228
2022-09-25T14:38:39.288Z,228
2022-09-25T14:42:42.475Z,228
2022-09-25T14:46:45.940Z,228
2022-09-25T14:48:46.961Z,228
2022-09-25T14:52:49.524Z,228
2022-09-25T14:54:51.196Z,228
2022-09-25T14:56:52.754Z,228
2022-09-25T14:58:54.456Z,228
2022-09-25T15:02:57.509Z,228
2022-09-25T15:04:58.973Z,228
2022-09-25T15:07:00.008Z,228
2022-09-25T15:09:01.243Z,228
2022-09-25T15:15:07.705Z,228
2022-09-25T15:17:07.457Z,228
2022-09-25T15:21:10.435Z,229
2022-09-25T15:25:13.987Z,229
2022-09-25T15:27:15.548Z,229
2022-09-25T15:29:17.187Z,229
2022-09-25T15:31:18.899Z,229
2022-09-25T15:35:21.814Z,229
2022-09-25T15:39:25.350Z,228
2022-09-25T15:41:26.341Z,229
2022-09-25T15:45:29.048Z,229
2022-09-25T15:47:30.370Z,229
2022-09-25T15:49:31.999Z,229
2022-09-25T15:51:33.820Z,228
2022-09-25T15:57:37.905Z,229
2022-09-25T15:59:39.771Z,229
2022-09-25T16:01:41.077Z,229
2022-09-25T16:03:42.209Z,228
2022-09-25T16:05:44.057Z,228
2022-09-25T16:07:47.641Z,228
2022-09-25T16:11:48.218Z,13
2022-09-25T16:13:49.525Z,13
2022-09-25T16:17:52.977Z,12
2022-09-25T16:19:54.671Z,13
2022-09-25T16:21:55.787Z,8
2022-09-25T16:23:56.844Z,8
2022-09-25T16:25:58.253Z,8
2022-09-25T16:27:59.274Z,8
2022-09-25T16:30:03.886Z,7
2022-09-25T16:32:01.582Z,7
2022-09-25T16:34:02.569Z,7
2022-09-25T16:38:05.172Z,7
2022-09-25T16:40:06.580Z,6
2022-09-25T16:42:07.710Z,6
2022-09-25T16:44:09.155Z,6
2022-09-25T16:46:10.645Z,6
2022-09-25T16:50:12.813Z,6
2022-09-25T16:52:14.428Z,7
2022-09-25T16:54:16.324Z,7
2022-09-25T16:56:17.809Z,224
2022-09-25T17:00:21.604Z,224
2022-09-25T17:02:23.517Z,224
2022-09-25T17:06:26.105Z,224
2022-09-25T17:08:27.413Z,224
2022-09-25T17:10:28.846Z,224
2022-09-25T17:12:30.129Z,224
2022-09-25T17:14:31.171Z,224
2022-09-25T17:16:32.276Z,224
2022-09-25T17:22:36.535Z,224
2022-09-25T17:24:38.084Z,224
2022-09-25T17:28:40.687Z,224
2022-09-25T17:30:41.791Z,224
2022-09-25T17:32:44.788Z,224
2022-09-25T17:34:44.745Z,224
2022-09-25T17:36:46.072Z,224
2022-09-25T17:38:47.270Z,224
2022-09-25T17:42:50.704Z,224
2022-09-25T17:44:52.567Z,224
2022-09-25T17:48:55.467Z,224
2022-09-25T17:52:58.462Z,224
2022-09-25T17:55:00.208Z,224
2022-09-25T17:59:02.957Z,224
2022-09-25T18:01:04.118Z,224
2022-09-25T18:03:05.804Z,224
2022-09-25T18:05:07.538Z,224
2022-09-25T18:09:10.400Z,224
2022-09-25T18:11:12.232Z,224
2022-09-25T18:13:13.899Z,224
2022-09-25T18:15:14.961Z,224
2022-09-25T18:21:18.159Z,224
2022-09-25T18:23:19.484Z,224
2022-09-25T18:25:21.189Z,224
2022-09-25T18:27:22.794Z,224
2022-09-25T18:31:25.210Z,224
2022-09-25T18:33:26.266Z,224
2022-09-25T18:35:28.118Z,224
2022-09-25T18:37:29.185Z,224
2022-09-25T18:41:32.190Z,224
2022-09-25T18:43:33.491Z,224
2022-09-25T18:45:34.713Z,224
2022-09-25T18:47:35.869Z,224
2022-09-25T18:49:37.634Z,224
2022-09-25T18:51:39.425Z,224
2022-09-25T18:53:40.976Z,224
2022-09-25T18:55:42.576Z,224
2022-09-25T18:57:43.635Z,224
2022-09-25T18:59:44.656Z,224
2022-09-25T19:01:45.889Z,224
2022-09-25T19:03:47.011Z,224
2022-09-25T19:05:48.424Z,224
2022-09-25T19:07:49.611Z,224
2022-09-25T19:09:51.447Z,224
2022-09-25T19:13:54.101Z,224
2022-09-25T19:14:37.899Z,224
2022-09-25T19:16:39.509Z,224
2022-09-25T19:18:40.674Z,224
2022-09-25T19:20:42.353Z,224
2022-09-25T19:22:43.541Z,224
2022-09-25T19:24:45.310Z,224
2022-09-25T19:28:48.711Z,224
2022-09-25T19:30:49.967Z,224
2022-09-25T19:32:51.667Z,224
2022-09-25T19:34:53.257Z,224
2022-09-25T19:40:57.435Z,224
2022-09-25T19:42:59.201Z,224
2022-09-25T19:45:01.125Z,224
2022-09-25T19:47:02.019Z,224
2022-09-25T19:51:05.239Z,224
2022-09-25T19:53:06.302Z,224
2022-09-25T19:55:07.272Z,224
2022-09-25T19:57:08.200Z,224
2022-09-25T20:01:10.846Z,224
2022-09-25T20:03:12.568Z,224
2022-09-25T20:07:14.606Z,224
2022-09-25T20:11:17.577Z,224
2022-09-25T20:13:18.586Z,224
2022-09-25T20:17:21.322Z,224
2022-09-25T20:21:23.504Z,224
2022-09-25T20:23:25.140Z,114
2022-09-25T20:27:28.208Z,114
2022-09-25T20:29:29.563Z,114
2022-09-25T20:31:30.606Z,114
2022-09-25T20:33:34.509Z,114
2022-09-25T20:35:33.499Z,114
2022-09-25T20:37:35.273Z,114
2022-09-25T20:39:36.245Z,114
2022-09-25T20:41:37.510Z,114
2022-09-25T20:43:38.570Z,114
2022-09-25T20:45:39.644Z,114
2022-09-25T20:49:42.848Z,114
2022-09-25T20:51:44.729Z,114
2022-09-25T20:53:45.659Z,114
2022-09-25T20:55:46.960Z,114
2022-09-25T20:59:50.526Z,114
2022-09-25T21:01:52.480Z,114
2022-09-25T21:03:54.294Z,114
2022-09-25T21:05:55.323Z,114
2022-09-25T21:07:56.705Z,114
2022-09-25T21:09:58.118Z,114
2022-09-25T21:11:59.222Z,114
2022-09-25T21:14:00.706Z,114
2022-09-25T21:16:02.272Z,114
2022-09-25T21:18:03.179Z,114
2022-09-25T21:20:05.082Z,114
2022-09-25T21:22:06.397Z,114
2022-09-25T21:24:08.060Z,155
2022-09-25T21:26:09.381Z,155
2022-09-25T21:28:10.565Z,155
2022-09-25T21:32:12.937Z,155
2022-09-25T21:34:14.799Z,155
2022-09-25T21:36:15.725Z,155
2022-09-25T21:38:16.653Z,155
2022-09-25T21:40:17.956Z,155
2022-09-25T21:42:19.628Z,155
2022-09-25T21:44:21.059Z,155
2022-09-25T21:46:22.571Z,155
2022-09-25T21:48:23.651Z,155
2022-09-25T21:50:24.628Z,155
2022-09-25T21:52:26.217Z,155
2022-09-25T21:54:27.659Z,155
2022-09-25T21:56:28.987Z,155
2022-09-25T22:00:31.580Z,155
2022-09-25T22:02:33.451Z,155
2022-09-25T22:04:35.111Z,155
2022-09-25T22:06:36.429Z,155
2022-09-25T22:10:39.570Z,155
2022-09-25T22:12:41.471Z,155
2022-09-25T22:14:43.289Z,155
2022-09-25T22:16:45.145Z,155
2022-09-25T22:18:46.127Z,155
2022-09-25T22:20:47.763Z,155
2022-09-25T22:22:49.568Z,155
2022-09-25T22:24:51.328Z,155
2022-09-25T22:26:52.933Z,155
2022-09-25T22:28:54.679Z,155
2022-09-25T22:30:55.967Z,155
2022-09-25T22:32:57.544Z,155
2022-09-25T22:34:58.617Z,155
2022-09-25T22:37:00.464Z,155
2022-09-25T22:41:02.685Z,155
2022-09-25T22:43:04.406Z,155
2022-09-25T22:47:07.830Z,155
2022-09-25T22:49:09.168Z,155
2022-09-25T22:51:10.416Z,155
2022-09-25T22:53:12.340Z,155
2022-09-25T22:55:13.592Z,155
2022-09-25T22:57:15.119Z,155
2022-09-25T22:59:16.322Z,155
2022-09-25T23:01:17.342Z,155
2022-09-25T23:03:18.703Z,155
2022-09-25T23:07:21.543Z,155
2022-09-25T23:09:23.037Z,155
2022-09-25T23:11:24.819Z,155
2022-09-25T23:13:26.389Z,155
2022-09-25T23:17:29.841Z,155
2022-09-25T23:19:31.494Z,155
2022-09-25T23:21:32.586Z,155
2022-09-25T23:25:35.747Z,155
2022-09-25T23:27:36.795Z,155
2022-09-25T23:29:38.053Z,155
2022-09-25T23:31:39.017Z,155
2022-09-25T23:33:40.684Z,155
2022-09-25T23:35:42.528Z,155
2022-09-25T23:39:45.673Z,158
2022-09-25T23:41:47.609Z,158
2022-09-25T23:43:48.712Z,158
2022-09-25T23:45:50.610Z,158
2022-09-25T23:49:53.472Z,158
2022-09-25T23:51:55.312Z,158
2022-09-25T23:53:56.298Z,158
2022-09-25T23:55:57.478Z,158
